createdAt,value
2024-05-09T00:04:19.859Z,14.83
2024-05-09T00:09:11.764Z,15.27
2024-05-09T00:14:03.798Z,15.47
2024-05-09T00:18:55.797Z,14.13
2024-05-09T00:23:47.676Z,17.57
2024-05-09T00:28:39.523Z,15.80
2024-05-09T00:33:31.522Z,15.63
2024-05-09T00:38:23.651Z,15.47
2024-05-09T00:43:15.767Z,17.90
2024-05-09T00:48:10.038Z,15.93
2024-05-09T00:53:03.291Z,16.67
2024-05-09T00:57:55.471Z,18.17
2024-05-09T01:02:48.109Z,15.10
2024-05-09T01:07:40.145Z,16.13
2024-05-09T01:12:32.149Z,14.90
2024-05-09T01:17:25.576Z,16.37
2024-05-09T01:22:17.590Z,15.30
2024-05-09T01:27:09.402Z,15.57
2024-05-09T01:32:01.381Z,15.87
2024-05-09T01:36:53.319Z,14.70
2024-05-09T01:41:45.257Z,12.10
2024-05-09T01:46:37.236Z,12.67
2024-05-09T01:51:29.097Z,12.80
2024-05-09T01:56:21.006Z,14.17
2024-05-09T02:01:13.045Z,11.47
2024-05-09T02:06:05.572Z,11.20
2024-05-09T02:10:57.681Z,11.60
2024-05-09T02:15:52.162Z,13.23
2024-05-09T02:20:44.380Z,13.27
2024-05-09T02:25:36.462Z,14.83
2024-05-09T02:35:23.163Z,17.67
2024-05-09T02:40:21.570Z,17.40
2024-05-09T02:45:17.542Z,19.40
2024-05-09T02:50:13.269Z,18.07
2024-05-09T02:55:07.858Z,18.00
2024-05-09T02:59:59.683Z,19.83
2024-05-09T03:04:51.618Z,19.33
2024-05-09T03:09:47.468Z,19.43
2024-05-09T03:14:39.455Z,19.37
2024-05-09T03:19:31.500Z,20.77
2024-05-09T03:24:23.442Z,18.60
2024-05-09T03:29:15.336Z,18.67
2024-05-09T03:34:07.419Z,19.33
2024-05-09T03:38:59.370Z,21.10
2024-05-09T03:43:51.370Z,21.13
2024-05-09T03:48:43.363Z,19.27
2024-05-09T03:53:37.118Z,19.73
2024-05-09T04:03:34.883Z,20.70
2024-05-09T04:08:26.828Z,22.20
2024-05-09T04:13:18.670Z,23.13
2024-05-09T04:18:10.667Z,22.33
2024-05-09T04:23:02.641Z,20.43
2024-05-09T04:27:55.881Z,18.60
2024-05-09T04:32:47.889Z,21.37
2024-05-09T04:37:39.793Z,18.53
2024-05-09T04:42:31.809Z,21.10
2024-05-09T04:47:23.818Z,17.67
2024-05-09T04:52:15.715Z,22.40
2024-05-09T04:57:07.546Z,20.50
2024-05-09T05:01:59.477Z,21.17
2024-05-09T05:06:51.386Z,22.80
2024-05-09T05:11:43.380Z,22.60
2024-05-09T05:16:35.335Z,22.30
2024-05-09T05:21:27.357Z,23.43
2024-05-09T05:26:20.548Z,25.90
2024-05-09T05:31:12.667Z,22.97
2024-05-09T05:36:04.890Z,26.93
2024-05-09T05:40:56.949Z,26.27
2024-05-09T05:45:48.887Z,24.20
2024-05-09T05:50:40.770Z,26.53
2024-05-09T05:55:32.713Z,24.65
2024-05-09T06:00:30.105Z,24.00
2024-05-09T06:05:29.322Z,24.97
2024-05-09T06:10:25.704Z,25.60
2024-05-09T06:15:21.943Z,24.23
2024-05-09T06:20:20.542Z,24.33
2024-05-09T06:25:18.715Z,24.63
2024-05-09T06:30:21.126Z,22.63
2024-05-09T06:35:18.100Z,20.37
2024-05-09T06:40:12.546Z,18.10
2024-05-09T06:45:06.876Z,16.63
2024-05-09T06:49:58.718Z,18.07
2024-05-09T06:54:50.560Z,19.20
2024-05-09T06:59:42.482Z,17.07
2024-05-09T07:04:34.401Z,18.23
2024-05-09T07:09:26.328Z,16.07
2024-05-09T07:14:19.148Z,16.87
2024-05-09T07:19:11.409Z,14.90
2024-05-09T07:24:03.516Z,13.95
2024-05-09T07:28:55.367Z,15.83
2024-05-09T07:33:47.311Z,14.60
2024-05-09T07:38:39.338Z,13.55
2024-05-09T07:43:31.301Z,14.13
2024-05-09T07:53:40.464Z,14.32
2024-05-09T07:58:36.654Z,14.20
2024-05-09T08:03:28.892Z,13.68
2024-05-09T08:08:20.881Z,15.23
2024-05-09T08:13:12.801Z,12.60
2024-05-09T08:18:09.309Z,15.85
2024-05-09T08:23:01.257Z,11.98
2024-05-09T08:27:53.170Z,14.25
2024-05-09T08:32:47.713Z,10.57
2024-05-09T08:37:40.709Z,11.38
2024-05-09T08:42:35.525Z,11.82
2024-05-09T08:47:32.504Z,11.55
2024-05-09T08:52:24.965Z,10.82
2024-05-09T08:57:18.120Z,12.00
2024-05-09T09:02:13.968Z,12.00
2024-05-09T09:07:06.865Z,12.60
2024-05-09T09:11:58.779Z,10.07
2024-05-09T09:16:51.815Z,10.40
2024-05-09T09:21:43.733Z,10.15
2024-05-09T09:26:35.617Z,12.25
2024-05-09T09:31:27.596Z,12.70
2024-05-09T09:36:19.627Z,13.68
2024-05-09T09:41:12.770Z,11.40
2024-05-09T09:46:08.632Z,12.68
2024-05-09T09:51:03.107Z,11.13
2024-05-09T09:55:59.019Z,11.65
2024-05-09T10:00:50.907Z,11.68
2024-05-09T10:05:46.335Z,11.50
2024-05-09T10:10:40.135Z,10.60
2024-05-09T10:15:52.004Z,9.93
2024-05-09T10:20:46.000Z,8.95
2024-05-09T10:25:37.857Z,10.70
2024-05-09T10:30:35.823Z,8.85
2024-05-09T10:35:32.005Z,10.13
2024-05-09T10:40:29.336Z,8.80
2024-05-09T10:45:24.680Z,8.23
2024-05-09T10:50:22.634Z,9.43
2024-05-09T10:55:20.423Z,8.10
2024-05-09T11:00:19.454Z,6.90
2024-05-09T11:05:20.074Z,7.07
2024-05-09T11:10:14.577Z,8.15
2024-05-09T11:15:06.752Z,6.95
2024-05-09T11:20:00.271Z,8.10
2024-05-09T11:24:52.627Z,6.43
2024-05-09T11:29:45.595Z,6.93
2024-05-09T11:34:42.147Z,7.07
2024-05-09T11:39:35.191Z,7.75
2024-05-09T11:44:27.377Z,7.07
2024-05-09T11:49:19.671Z,6.00
2024-05-09T11:54:11.583Z,5.82
2024-05-09T11:59:03.719Z,5.60
2024-05-09T12:03:55.780Z,5.10
2024-05-09T12:08:48.115Z,5.88
2024-05-09T12:13:40.279Z,4.53
2024-05-09T12:18:33.917Z,4.45
2024-05-09T12:23:25.929Z,5.20
2024-05-09T12:28:18.182Z,3.63
2024-05-09T12:33:14.005Z,3.35
2024-05-09T12:38:06.128Z,4.10
2024-05-09T12:42:58.006Z,4.45
2024-05-09T12:47:50.121Z,4.03
2024-05-09T12:52:42.010Z,4.05
2024-05-09T12:57:34.022Z,3.83
2024-05-09T13:02:26.057Z,3.90
2024-05-09T13:07:18.720Z,4.30
2024-05-09T13:12:10.613Z,3.70
2024-05-09T13:17:02.588Z,5.50
2024-05-09T13:21:54.469Z,2.97
2024-05-09T13:26:46.334Z,3.10
2024-05-09T13:31:38.237Z,3.78
2024-05-09T13:36:30.153Z,3.53
2024-05-09T13:41:22.023Z,3.95
2024-05-09T13:46:13.947Z,4.07
2024-05-09T13:51:05.957Z,3.03
2024-05-09T13:55:57.818Z,5.22
2024-05-09T14:00:49.915Z,4.50
2024-05-09T14:05:42.105Z,3.00
2024-05-09T14:10:35.415Z,2.80
2024-05-09T14:15:27.321Z,3.50
2024-05-09T14:20:28.624Z,2.40
2024-05-09T14:25:26.184Z,2.33
2024-05-09T14:30:26.141Z,2.38
2024-05-09T14:35:25.929Z,3.28
2024-05-09T14:40:29.741Z,2.90
2024-05-09T14:45:28.679Z,3.00
2024-05-09T14:50:28.020Z,3.50
2024-05-09T14:55:26.868Z,2.83
2024-05-09T15:00:26.141Z,2.63
2024-05-09T15:05:21.480Z,4.20
2024-05-09T15:10:20.424Z,2.90
2024-05-09T15:15:17.363Z,3.20
2024-05-09T15:20:09.918Z,6.13
2024-05-09T15:25:08.440Z,2.70
2024-05-09T15:30:02.166Z,2.88
2024-05-09T15:34:54.014Z,4.63
2024-05-09T15:39:46.123Z,2.92
2024-05-09T15:44:38.225Z,2.70
2024-05-09T15:49:30.328Z,3.17
2024-05-09T15:54:23.595Z,2.75
2024-05-09T15:59:18.256Z,4.05
2024-05-09T16:04:10.870Z,2.47
2024-05-09T16:09:03.025Z,2.40
2024-05-09T16:13:54.850Z,3.05
2024-05-09T16:18:46.843Z,5.80
2024-05-09T16:23:40.376Z,3.10
2024-05-09T16:28:32.392Z,2.45
2024-05-09T16:33:26.028Z,2.65
2024-05-09T16:38:19.292Z,2.85
2024-05-09T16:43:13.098Z,4.25
2024-05-09T16:48:06.913Z,2.03
2024-05-09T16:52:58.987Z,3.40
2024-05-09T16:57:51.344Z,2.97
2024-05-09T17:02:44.143Z,2.20
2024-05-09T17:07:36.339Z,2.25
2024-05-09T17:12:28.208Z,2.25
2024-05-09T17:17:20.937Z,2.05
2024-05-09T17:22:16.047Z,2.30
2024-05-09T17:27:08.948Z,3.22
2024-05-09T17:32:00.805Z,4.25
2024-05-09T17:36:52.991Z,3.97
2024-05-09T17:41:44.916Z,2.60
2024-05-09T17:46:36.854Z,2.50
2024-05-09T17:51:31.699Z,5.13
2024-05-09T17:56:23.722Z,4.43
2024-05-09T18:01:15.874Z,2.83
2024-05-09T18:06:08.540Z,2.90
2024-05-09T18:11:00.540Z,2.72
2024-05-09T18:15:52.883Z,3.00
2024-05-09T18:20:46.163Z,3.05
2024-05-09T18:25:38.483Z,3.58
2024-05-09T18:30:34.965Z,2.63
2024-05-09T18:35:28.476Z,3.00
2024-05-09T18:40:27.380Z,2.92
2024-05-09T18:45:23.219Z,3.53
2024-05-09T18:50:24.370Z,2.97
2024-05-09T18:55:23.628Z,2.83
2024-05-09T19:00:26.794Z,3.53
2024-05-09T19:05:25.909Z,3.53
2024-05-09T19:10:22.685Z,3.80
2024-05-09T19:15:17.963Z,4.60
2024-05-09T19:20:20.510Z,3.60
2024-05-09T19:25:20.105Z,3.80
2024-05-09T19:30:21.037Z,4.68
2024-05-09T19:35:17.379Z,4.70
2024-05-09T19:40:14.815Z,5.50
2024-05-09T19:45:12.752Z,4.97
2024-05-09T19:50:10.541Z,3.38
2024-05-09T19:55:03.045Z,4.72
2024-05-09T19:59:55.048Z,3.13
2024-05-09T20:04:47.852Z,3.03
2024-05-09T20:09:39.774Z,2.92
2024-05-09T20:14:31.673Z,2.65
2024-05-09T20:19:23.557Z,3.30
2024-05-09T20:24:15.493Z,3.78
2024-05-09T20:29:07.328Z,4.07
2024-05-09T20:33:59.217Z,3.58
2024-05-09T20:38:51.082Z,4.45
2024-05-09T20:43:42.921Z,3.97
2024-05-09T20:48:34.962Z,6.65
2024-05-09T20:53:27.005Z,4.30
2024-05-09T20:58:18.965Z,5.07
2024-05-09T21:03:12.491Z,3.70
2024-05-09T21:08:05.288Z,4.28
2024-05-09T21:12:57.144Z,3.25
2024-05-09T21:17:48.996Z,4.57
2024-05-09T21:22:40.858Z,4.13
2024-05-09T21:27:34.165Z,3.20
2024-05-09T21:32:26.175Z,3.30
2024-05-09T21:37:18.249Z,3.50
2024-05-09T21:42:10.171Z,3.13
2024-05-09T21:47:02.026Z,3.42
2024-05-09T21:51:53.960Z,3.88
2024-05-09T21:56:45.793Z,3.38
2024-05-09T22:06:47.074Z,3.88
2024-05-09T22:11:39.001Z,4.30
2024-05-09T22:21:37.042Z,5.20
2024-05-09T22:26:28.884Z,3.55
2024-05-09T22:31:20.784Z,4.50
2024-05-09T22:36:12.746Z,3.50
2024-05-09T22:41:09.553Z,4.53
2024-05-09T22:46:03.376Z,3.78
2024-05-09T22:50:55.344Z,4.60
2024-05-09T22:55:47.278Z,4.00
2024-05-09T23:00:39.217Z,5.65
2024-05-09T23:05:32.602Z,6.85
2024-05-09T23:10:32.009Z,5.22
2024-05-09T23:15:27.981Z,7.30
2024-05-09T23:20:29.885Z,7.88
2024-05-09T23:25:28.614Z,6.60
2024-05-09T23:30:29.227Z,7.30
2024-05-09T23:35:28.682Z,4.95
2024-05-09T23:40:23.305Z,4.95
2024-05-09T23:45:15.946Z,6.70
2024-05-09T23:50:13.833Z,5.75
2024-05-09T23:55:08.494Z,6.63
